createdAt,value
2023-04-12T00:00:24.980Z,27.23
2023-04-12T00:01:24.979Z,27.19
2023-04-12T00:02:25.092Z,27.23
2023-04-12T00:03:25.173Z,27.22
2023-04-12T00:04:25.176Z,27.20
2023-04-12T00:05:25.175Z,27.20
2023-04-12T00:06:25.004Z,27.20
2023-04-12T00:07:25.017Z,27.25
2023-04-12T00:08:25.023Z,27.22
2023-04-12T00:09:25.027Z,27.25
2023-04-12T00:10:25.062Z,27.23
2023-04-12T00:11:25.053Z,27.22
2023-04-12T00:12:25.077Z,27.22
2023-04-12T00:13:25.076Z,27.22
2023-04-12T00:14:25.065Z,27.22
2023-04-12T00:15:25.079Z,27.22
2023-04-12T00:16:25.176Z,27.22
2023-04-12T00:17:25.082Z,27.20
2023-04-12T00:18:25.400Z,27.17
2023-04-12T00:19:25.100Z,27.20
2023-04-12T00:20:25.098Z,27.19
2023-04-12T00:21:25.134Z,27.20
2023-04-12T00:22:25.124Z,27.22
2023-04-12T00:23:25.128Z,27.20
2023-04-12T00:24:25.142Z,27.22
2023-04-12T00:25:25.175Z,27.20
2023-04-12T00:26:25.197Z,27.20
2023-04-12T00:27:25.207Z,27.20
2023-04-12T00:28:25.229Z,27.19
2023-04-12T00:29:25.287Z,27.22
2023-04-12T00:30:25.253Z,27.23
2023-04-12T00:31:25.335Z,27.20
2023-04-12T00:32:25.279Z,27.23
2023-04-12T00:33:25.294Z,27.22
2023-04-12T00:34:25.302Z,27.19
2023-04-12T00:35:25.311Z,27.22
2023-04-12T00:36:25.344Z,27.22
2023-04-12T00:37:25.352Z,27.23
2023-04-12T00:38:25.349Z,27.19
2023-04-12T00:39:25.374Z,27.25
2023-04-12T00:40:25.399Z,27.22
2023-04-12T00:41:25.393Z,27.22
2023-04-12T00:42:25.390Z,27.20
2023-04-12T00:43:25.392Z,27.19
2023-04-12T00:44:25.424Z,27.17
2023-04-12T00:45:25.408Z,27.20
2023-04-12T00:46:25.512Z,27.20
2023-04-12T00:47:25.504Z,27.22
2023-04-12T00:48:25.453Z,27.20
2023-04-12T00:49:25.478Z,27.20
2023-04-12T00:50:25.447Z,27.19
2023-04-12T00:51:25.480Z,27.20
2023-04-12T00:52:25.493Z,27.20
2023-04-12T00:53:25.481Z,27.22
2023-04-12T00:54:25.481Z,27.20
2023-04-12T00:55:25.461Z,27.20
2023-04-12T00:56:25.481Z,27.17
2023-04-12T00:57:25.508Z,27.22
2023-04-12T00:58:25.497Z,27.22
2023-04-12T00:59:25.500Z,27.19
2023-04-12T01:00:25.556Z,27.17
2023-04-12T01:01:25.510Z,27.19
2023-04-12T01:02:25.609Z,27.19
2023-04-12T01:03:25.708Z,27.22
2023-04-12T01:04:25.544Z,27.19
2023-04-12T01:05:25.583Z,27.19
2023-04-12T01:06:25.549Z,27.20
2023-04-12T01:07:25.553Z,27.22
2023-04-12T01:08:25.560Z,27.20
2023-04-12T01:09:25.558Z,27.19
2023-04-12T01:10:25.572Z,27.16
2023-04-12T01:11:25.612Z,27.17
2023-04-12T01:12:25.608Z,27.19
2023-04-12T01:13:25.619Z,27.19
2023-04-12T01:14:25.609Z,27.19
2023-04-12T01:15:25.616Z,27.19
2023-04-12T01:16:25.674Z,27.19
2023-04-12T01:17:25.703Z,27.19
2023-04-12T01:18:25.631Z,27.20
2023-04-12T01:19:25.641Z,27.14
2023-04-12T01:20:25.656Z,27.17
2023-04-12T01:21:25.672Z,27.20
2023-04-12T01:22:25.653Z,27.16
2023-04-12T01:23:25.689Z,27.19
2023-04-12T01:24:25.692Z,27.20
2023-04-12T01:25:25.673Z,27.19
2023-04-12T01:26:25.760Z,27.17
2023-04-12T01:27:25.698Z,27.17
2023-04-12T01:28:25.699Z,27.20
2023-04-12T01:29:25.721Z,27.19
2023-04-12T01:30:25.727Z,27.19
2023-04-12T01:31:25.706Z,27.19
2023-04-12T01:32:25.714Z,27.20
2023-04-12T01:33:25.692Z,27.19
2023-04-12T01:34:25.700Z,27.17
2023-04-12T01:35:25.754Z,27.14
2023-04-12T01:36:25.702Z,27.17
2023-04-12T01:37:25.726Z,27.19
2023-04-12T01:38:25.711Z,27.17
2023-04-12T01:39:25.713Z,27.16
2023-04-12T01:40:25.731Z,27.17
2023-04-12T01:41:25.733Z,27.17
2023-04-12T01:42:25.738Z,27.17
2023-04-12T01:43:25.721Z,27.19
2023-04-12T01:44:25.718Z,27.20
2023-04-12T01:45:25.742Z,27.20
2023-04-12T01:46:25.732Z,27.17
2023-04-12T01:47:25.779Z,27.19
2023-04-12T01:48:25.708Z,27.17
2023-04-12T01:49:25.741Z,27.20
2023-04-12T01:50:25.737Z,27.19
2023-04-12T01:51:25.715Z,27.19
2023-04-12T01:52:25.711Z,27.17
2023-04-12T01:53:25.708Z,27.19
2023-04-12T01:54:25.721Z,27.20
2023-04-12T01:55:25.730Z,27.17
2023-04-12T01:56:25.727Z,27.19
2023-04-12T01:57:25.744Z,27.16
2023-04-12T01:58:25.718Z,27.19
2023-04-12T01:59:25.727Z,27.20
2023-04-12T02:00:25.732Z,27.20
2023-04-12T02:01:25.838Z,27.19
2023-04-12T02:02:25.887Z,27.19
2023-04-12T02:03:25.843Z,27.17
2023-04-12T02:04:25.753Z,27.20
2023-04-12T02:05:25.748Z,27.19
2023-04-12T02:06:25.774Z,27.16
2023-04-12T02:07:25.773Z,27.17
2023-04-12T02:08:25.752Z,27.17
2023-04-12T02:09:25.739Z,27.17
2023-04-12T02:10:25.776Z,27.17
2023-04-12T02:11:25.776Z,27.17
2023-04-12T02:12:25.752Z,27.16
2023-04-12T02:13:25.780Z,27.16
2023-04-12T02:14:25.757Z,27.16
2023-04-12T02:15:25.780Z,27.17
2023-04-12T02:16:25.836Z,27.19
2023-04-12T02:17:25.759Z,27.17
2023-04-12T02:18:25.774Z,27.17
2023-04-12T02:19:25.776Z,27.19
2023-04-12T02:20:25.769Z,27.17
2023-04-12T02:21:25.779Z,27.17
2023-04-12T02:22:25.792Z,27.17
2023-04-12T02:23:25.803Z,27.17
2023-04-12T02:24:25.824Z,27.17
2023-04-12T02:25:25.819Z,27.17
2023-04-12T02:26:25.829Z,27.17
2023-04-12T02:27:25.846Z,27.17
2023-04-12T02:28:25.832Z,27.16
2023-04-12T02:29:25.829Z,27.19
2023-04-12T02:30:25.923Z,27.17
2023-04-12T02:31:25.864Z,27.17
2023-04-12T02:32:25.904Z,27.17
2023-04-12T02:33:25.854Z,27.14
2023-04-12T02:34:25.849Z,27.19
2023-04-12T02:35:25.877Z,27.16
2023-04-12T02:36:25.869Z,27.17
2023-04-12T02:37:25.850Z,27.16
2023-04-12T02:38:25.839Z,27.19
2023-04-12T02:39:25.851Z,27.16
2023-04-12T02:40:25.845Z,27.16
2023-04-12T02:41:25.875Z,27.17
2023-04-12T02:42:25.836Z,27.17
2023-04-12T02:43:25.844Z,27.17
2023-04-12T02:44:25.854Z,27.17
2023-04-12T02:45:25.851Z,27.17
2023-04-12T02:46:25.923Z,27.16
2023-04-12T02:47:25.869Z,27.16
2023-04-12T02:48:25.838Z,27.19
2023-04-12T02:49:25.837Z,27.14
2023-04-12T02:50:25.834Z,27.16
2023-04-12T02:51:25.840Z,27.17
2023-04-12T02:52:25.837Z,27.16
2023-04-12T02:53:25.814Z,27.17
2023-04-12T02:54:25.843Z,27.16
2023-04-12T02:55:25.853Z,27.17
2023-04-12T02:56:25.842Z,27.17
2023-04-12T02:57:25.894Z,27.16
2023-04-12T02:58:25.872Z,27.20
2023-04-12T02:59:25.853Z,27.16
2023-04-12T03:00:25.874Z,27.17
2023-04-12T03:01:25.900Z,27.16
2023-04-12T03:02:25.962Z,27.16
2023-04-12T03:03:26.034Z,27.16
2023-04-12T03:04:26.000Z,27.16
2023-04-12T03:05:25.891Z,27.16
2023-04-12T03:06:25.857Z,27.19
2023-04-12T03:07:25.859Z,27.19
2023-04-12T03:08:25.868Z,27.16
2023-04-12T03:09:25.854Z,27.13
2023-04-12T03:10:25.851Z,27.16
2023-04-12T03:11:25.861Z,27.16
2023-04-12T03:12:25.888Z,27.16
2023-04-12T03:13:25.846Z,27.14
2023-04-12T03:14:25.868Z,27.17
2023-04-12T03:15:25.955Z,27.17
2023-04-12T03:16:25.850Z,27.14
2023-04-12T03:17:25.894Z,27.13
2023-04-12T03:18:25.872Z,27.16
2023-04-12T03:19:25.844Z,27.14
2023-04-12T03:20:25.843Z,27.16
2023-04-12T03:21:25.860Z,27.16
2023-04-12T03:22:25.852Z,27.16
2023-04-12T03:23:25.868Z,27.13
2023-04-12T03:24:25.876Z,27.14
2023-04-12T03:25:25.863Z,27.14
2023-04-12T03:26:25.870Z,27.16
2023-04-12T03:27:25.866Z,27.14
2023-04-12T03:28:25.872Z,27.14
2023-04-12T03:29:25.883Z,27.19
2023-04-12T03:30:25.870Z,27.16
2023-04-12T03:31:25.891Z,27.14
2023-04-12T03:32:25.925Z,27.14
2023-04-12T03:33:25.903Z,27.14
2023-04-12T03:34:25.893Z,27.14
2023-04-12T03:35:25.957Z,27.14
2023-04-12T03:36:25.892Z,27.16
2023-04-12T03:37:25.922Z,27.16
2023-04-12T03:38:25.900Z,27.14
2023-04-12T03:39:25.876Z,27.16
2023-04-12T03:40:25.901Z,27.16
2023-04-12T03:41:25.895Z,27.14
2023-04-12T03:42:33.259Z,27.14
2023-04-12T03:43:26.866Z,27.16
2023-04-12T03:44:25.868Z,27.13
2023-04-12T03:45:25.867Z,27.13
2023-04-12T03:46:25.914Z,27.16
2023-04-12T03:47:25.938Z,27.14
2023-04-12T03:48:25.829Z,27.14
2023-04-12T03:49:25.844Z,27.14
2023-04-12T03:50:25.838Z,27.17
2023-04-12T03:51:25.807Z,27.16
2023-04-12T03:52:25.819Z,27.14
2023-04-12T03:53:25.787Z,27.13
2023-04-12T03:54:25.782Z,27.14
2023-04-12T03:55:25.787Z,27.14
2023-04-12T03:56:25.809Z,27.14
2023-04-12T03:57:25.778Z,27.16
2023-04-12T03:58:25.780Z,27.16
2023-04-12T03:59:25.771Z,27.17
2023-04-12T04:00:25.771Z,27.16
2023-04-12T04:01:25.755Z,27.16
2023-04-12T04:02:25.964Z,27.14
2023-04-12T04:03:25.806Z,27.14
2023-04-12T04:04:25.834Z,27.16
2023-04-12T04:05:25.746Z,27.14
2023-04-12T04:06:25.731Z,27.13
2023-04-12T04:07:25.713Z,27.16
2023-04-12T04:08:25.702Z,27.16
2023-04-12T04:09:25.671Z,27.11
2023-04-12T04:10:25.698Z,27.16
2023-04-12T04:11:25.737Z,27.14
2023-04-12T04:12:25.676Z,27.14
2023-04-12T04:13:25.665Z,27.14
2023-04-12T04:14:25.686Z,27.14
2023-04-12T04:15:25.668Z,27.17
2023-04-12T04:16:25.727Z,27.14
2023-04-12T04:17:25.733Z,27.13
2023-04-12T04:18:25.712Z,27.13
2023-04-12T04:19:25.725Z,27.14
2023-04-12T04:20:27.341Z,27.13
2023-04-12T04:21:25.749Z,27.14
2023-04-12T04:22:25.754Z,27.14
2023-04-12T04:23:25.735Z,27.16
2023-04-12T04:24:25.736Z,27.14
2023-04-12T04:25:25.762Z,27.13
2023-04-12T04:26:25.725Z,27.14
2023-04-12T04:27:25.733Z,27.13
2023-04-12T04:28:25.735Z,27.13
2023-04-12T04:29:25.770Z,27.13
2023-04-12T04:30:25.738Z,27.11
2023-04-12T04:31:25.734Z,27.11
2023-04-12T04:32:25.780Z,27.14
2023-04-12T04:33:25.740Z,27.14
2023-04-12T04:34:25.722Z,27.11
2023-04-12T04:35:25.805Z,27.14
2023-04-12T04:36:25.737Z,27.14
2023-04-12T04:37:25.744Z,27.14
2023-04-12T04:38:25.818Z,27.14
2023-04-12T04:39:25.721Z,27.14
2023-04-12T04:40:25.738Z,27.13
2023-04-12T04:41:25.730Z,27.14
2023-04-12T04:42:25.731Z,27.13
2023-04-12T04:43:25.703Z,27.10
2023-04-12T04:44:25.706Z,27.11
2023-04-12T04:45:25.776Z,27.11
2023-04-12T04:46:25.777Z,27.14
2023-04-12T04:47:25.790Z,27.14
2023-04-12T04:48:25.774Z,27.13
2023-04-12T04:49:25.757Z,27.14
2023-04-12T04:50:25.782Z,27.16
2023-04-12T04:51:25.802Z,27.14
2023-04-12T04:52:25.789Z,27.14
2023-04-12T04:53:25.795Z,27.14
2023-04-12T04:54:25.814Z,27.13
2023-04-12T04:55:25.856Z,27.13
2023-04-12T04:56:25.849Z,27.14
2023-04-12T04:57:25.810Z,27.16
2023-04-12T04:58:25.826Z,27.16
2023-04-12T04:59:25.823Z,27.13
2023-04-12T05:00:25.828Z,27.16
2023-04-12T05:01:25.949Z,27.16
2023-04-12T05:02:25.933Z,27.16
2023-04-12T05:03:27.567Z,27.14
2023-04-12T05:04:25.870Z,27.14
2023-04-12T05:05:25.844Z,27.16
2023-04-12T05:06:25.862Z,27.16
2023-04-12T05:07:25.818Z,27.16
2023-04-12T05:08:25.818Z,27.14
2023-04-12T05:09:25.798Z,27.16
2023-04-12T05:10:25.827Z,27.14
2023-04-12T05:11:25.828Z,27.14
2023-04-12T05:12:25.782Z,27.17
2023-04-12T05:13:25.807Z,27.20
2023-04-12T05:14:30.993Z,27.20
2023-04-12T05:15:26.784Z,27.22
2023-04-12T05:16:25.779Z,27.20
2023-04-12T05:17:25.766Z,27.23
2023-04-12T05:18:25.791Z,27.23
2023-04-12T05:19:25.744Z,27.26
2023-04-12T05:20:25.760Z,27.23
2023-04-12T05:21:25.743Z,27.26
2023-04-12T05:22:25.734Z,27.22
2023-04-12T05:23:25.786Z,27.25
2023-04-12T05:24:25.717Z,27.23
2023-04-12T05:25:25.730Z,27.27
2023-04-12T05:26:25.712Z,27.23
2023-04-12T05:27:25.682Z,27.23
2023-04-12T05:28:25.701Z,27.22
2023-04-12T05:29:25.669Z,27.22
2023-04-12T05:30:25.696Z,27.22
2023-04-12T05:31:25.712Z,27.23
2023-04-12T05:32:25.709Z,27.23
2023-04-12T05:33:25.666Z,27.14
2023-04-12T05:34:25.663Z,27.19
2023-04-12T05:35:25.670Z,27.17
2023-04-12T05:36:25.802Z,27.19
2023-04-12T05:37:25.623Z,27.19
2023-04-12T05:38:25.823Z,27.11
2023-04-12T05:39:25.609Z,27.16
2023-04-12T05:40:25.594Z,27.10
2023-04-12T05:41:25.607Z,27.13
2023-04-12T05:42:25.623Z,27.16
2023-04-12T05:43:25.621Z,27.16
2023-04-12T05:44:25.640Z,27.19
2023-04-12T05:45:25.671Z,27.23
2023-04-12T05:46:25.718Z,27.27
2023-04-12T05:47:25.732Z,27.29
2023-04-12T05:48:25.768Z,27.33
2023-04-12T05:49:25.823Z,27.39
2023-04-12T05:50:25.893Z,27.41
2023-04-12T05:51:40.029Z,27.44
2023-04-12T05:52:26.944Z,27.50
2023-04-12T05:53:25.921Z,27.56
2023-04-12T05:54:25.935Z,27.54
2023-04-12T05:55:25.924Z,27.61
2023-04-12T05:56:25.936Z,27.62
2023-04-12T05:57:25.915Z,27.68
2023-04-12T05:58:25.890Z,27.70
2023-04-12T05:59:25.898Z,27.71
2023-04-12T06:00:25.880Z,27.74
2023-04-12T06:01:25.869Z,27.74
2023-04-12T06:02:26.569Z,27.75
2023-04-12T06:03:25.974Z,27.70
2023-04-12T06:04:34.804Z,27.61
2023-04-12T06:05:27.028Z,27.58
2023-04-12T06:06:25.957Z,27.53
2023-04-12T06:07:26.303Z,27.47
2023-04-12T06:08:25.926Z,27.44
2023-04-12T06:09:25.910Z,27.40
2023-04-12T06:10:25.913Z,27.36
2023-04-12T06:11:25.900Z,27.33
2023-04-12T06:12:25.896Z,27.30
2023-04-12T06:13:25.902Z,27.23
2023-04-12T06:14:25.908Z,27.19
2023-04-12T06:15:25.882Z,27.17
2023-04-12T06:16:25.893Z,27.13
2023-04-12T06:17:25.919Z,27.03
2023-04-12T06:18:25.914Z,27.02
2023-04-12T06:19:25.933Z,26.97
2023-04-12T06:20:26.012Z,26.95
2023-04-12T06:21:25.982Z,26.92
2023-04-12T06:22:26.015Z,26.90
2023-04-12T06:23:26.059Z,26.86
2023-04-12T06:24:26.074Z,26.83
2023-04-12T06:25:26.103Z,26.78
2023-04-12T06:26:26.988Z,26.78
2023-04-12T06:27:26.189Z,26.74
2023-04-12T06:28:26.234Z,26.75
2023-04-12T06:29:26.307Z,26.74
2023-04-12T06:30:26.331Z,26.69
2023-04-12T06:31:26.358Z,26.65
2023-04-12T06:32:26.440Z,26.56
2023-04-12T06:33:26.472Z,26.51
2023-04-12T06:34:26.479Z,26.49
2023-04-12T06:35:26.483Z,26.48
2023-04-12T06:36:26.539Z,26.48
2023-04-12T06:37:26.613Z,26.51
2023-04-12T06:38:26.654Z,26.55
2023-04-12T06:39:26.762Z,26.59
2023-04-12T06:40:26.846Z,26.63
2023-04-12T06:41:26.781Z,26.68
2023-04-12T06:42:26.795Z,26.75
2023-04-12T06:43:26.814Z,26.81
2023-04-12T06:44:26.826Z,26.86
2023-04-12T06:45:26.840Z,26.93
2023-04-12T06:46:26.886Z,26.96
2023-04-12T06:47:27.334Z,27.03
2023-04-12T06:48:26.860Z,27.07
2023-04-12T06:49:26.873Z,27.11
2023-04-12T06:50:26.905Z,27.16
2023-04-12T06:51:26.956Z,27.22
2023-04-12T06:52:27.046Z,27.27
2023-04-12T06:53:27.072Z,27.29
2023-04-12T06:54:27.114Z,27.34
2023-04-12T06:55:27.194Z,27.40
2023-04-12T06:56:27.215Z,27.41
2023-04-12T06:57:27.356Z,27.43
2023-04-12T06:58:27.334Z,27.49
2023-04-12T06:59:27.410Z,27.50
2023-04-12T07:00:27.450Z,27.54
2023-04-12T07:01:27.579Z,27.56
2023-04-12T07:02:27.594Z,27.54
2023-04-12T07:03:27.635Z,27.57
2023-04-12T07:04:27.625Z,27.62
2023-04-12T07:05:27.682Z,27.65
2023-04-12T07:06:27.689Z,27.67
2023-04-12T07:07:27.838Z,27.67
2023-04-12T07:08:29.685Z,27.70
2023-04-12T07:09:27.808Z,27.72
2023-04-12T07:10:27.826Z,27.70
2023-04-12T07:11:27.895Z,27.74
2023-04-12T07:12:27.914Z,27.78
2023-04-12T07:13:28.040Z,27.77
2023-04-12T07:14:27.975Z,27.78
2023-04-12T07:15:28.025Z,27.71
2023-04-12T07:16:28.069Z,27.75
2023-04-12T07:17:28.378Z,27.77
2023-04-12T07:18:28.132Z,27.78
2023-04-12T07:19:28.348Z,27.83
2023-04-12T07:20:28.177Z,27.83
2023-04-12T07:21:28.254Z,27.80
2023-04-12T07:22:28.253Z,27.83
2023-04-12T07:23:28.290Z,27.84
2023-04-12T07:24:28.307Z,27.85
2023-04-12T07:25:28.317Z,27.85
2023-04-12T07:26:28.353Z,27.87
2023-04-12T07:27:28.396Z,27.85
2023-04-12T07:28:28.420Z,27.88
2023-04-12T07:29:28.455Z,27.88
2023-04-12T07:30:28.498Z,27.91
2023-04-12T07:31:28.569Z,27.88
2023-04-12T07:32:28.663Z,27.92
2023-04-12T07:33:28.588Z,27.92
2023-04-12T07:34:28.726Z,27.90
2023-04-12T07:35:28.623Z,27.85
2023-04-12T07:36:28.649Z,27.83
2023-04-12T07:37:28.700Z,27.78
2023-04-12T07:38:28.765Z,27.70
2023-04-12T07:39:28.961Z,27.61
2023-04-12T07:40:28.796Z,27.57
2023-04-12T07:41:28.811Z,27.47
2023-04-12T07:42:28.837Z,27.41
2023-04-12T07:43:28.868Z,27.34
2023-04-12T07:44:28.879Z,27.25
2023-04-12T07:45:29.002Z,27.19
2023-04-12T07:46:28.988Z,27.11
2023-04-12T07:47:28.992Z,27.03
2023-04-12T07:48:29.018Z,26.99
2023-04-12T07:49:29.068Z,26.93
2023-04-12T07:50:29.169Z,26.83
2023-04-12T07:51:29.189Z,26.82
2023-04-12T07:52:29.236Z,26.78
2023-04-12T07:53:29.308Z,26.78
2023-04-12T07:54:29.343Z,26.76
2023-04-12T07:55:29.393Z,26.79
2023-04-12T07:56:29.468Z,26.81
2023-04-12T07:57:29.453Z,26.83
2023-04-12T07:58:29.488Z,26.85
2023-04-12T07:59:29.526Z,26.87
2023-04-12T08:00:29.574Z,26.92
2023-04-12T08:01:29.571Z,26.95
2023-04-12T08:02:29.687Z,26.97
2023-04-12T08:03:29.706Z,26.99
2023-04-12T08:04:29.742Z,27.05
2023-04-12T08:05:29.776Z,27.07
2023-04-12T08:06:31.811Z,27.09
2023-04-12T08:07:29.844Z,27.13
2023-04-12T08:08:29.636Z,27.16
2023-04-12T08:09:29.672Z,27.16
2023-04-12T08:10:29.652Z,27.19
2023-04-12T08:11:29.623Z,27.22
2023-04-12T08:12:29.673Z,27.23
2023-04-12T08:13:29.594Z,27.23
2023-04-12T08:14:29.663Z,27.25
2023-04-12T08:15:29.669Z,27.27
2023-04-12T08:16:29.585Z,27.30
2023-04-12T08:17:29.612Z,27.32
2023-04-12T08:18:29.564Z,27.32
2023-04-12T08:19:29.867Z,27.29
2023-04-12T08:20:29.552Z,27.33
2023-04-12T08:21:29.551Z,27.30
2023-04-12T08:22:29.868Z,27.25
2023-04-12T08:23:29.521Z,27.30
2023-04-12T08:24:29.530Z,27.30
2023-04-12T08:25:29.534Z,27.30
2023-04-12T08:26:29.501Z,27.36
2023-04-12T08:27:29.523Z,27.37
2023-04-12T08:28:29.494Z,27.41
2023-04-12T08:29:29.489Z,27.41
2023-04-12T08:30:29.481Z,27.43
2023-04-12T08:31:29.487Z,27.49
2023-04-12T08:32:29.468Z,27.51
2023-04-12T08:33:29.482Z,27.56
2023-04-12T08:34:29.439Z,27.60
2023-04-12T08:35:29.524Z,27.61
2023-04-12T08:36:29.436Z,27.60
2023-04-12T08:37:29.448Z,27.65
2023-04-12T08:38:44.209Z,27.71
2023-04-12T08:39:30.428Z,27.72
2023-04-12T08:40:29.408Z,27.78
2023-04-12T08:41:29.393Z,27.84
2023-04-12T08:42:29.386Z,27.87
2023-04-12T08:43:29.378Z,27.91
2023-04-12T08:44:29.359Z,27.94
2023-04-12T08:45:29.355Z,27.94
2023-04-12T08:46:29.400Z,27.91
2023-04-12T08:47:29.363Z,27.94
2023-04-12T08:48:29.349Z,27.92
2023-04-12T08:49:29.408Z,27.94
2023-04-12T08:50:29.349Z,27.92
2023-04-12T08:51:29.338Z,27.92
2023-04-12T08:52:29.313Z,27.90
2023-04-12T08:53:29.296Z,27.88
2023-04-12T08:54:29.336Z,27.91
2023-04-12T08:55:29.377Z,27.90
2023-04-12T08:56:29.425Z,27.90
2023-04-12T08:57:31.236Z,27.88
2023-04-12T08:58:29.529Z,27.90
2023-04-12T08:59:29.525Z,27.90
2023-04-12T09:00:29.557Z,27.90
2023-04-12T09:01:29.657Z,27.92
2023-04-12T09:02:29.805Z,27.90
2023-04-12T09:03:31.959Z,27.90
2023-04-12T09:04:29.773Z,27.90
2023-04-12T09:05:29.749Z,27.90
2023-04-12T09:06:29.673Z,27.90
2023-04-12T09:07:29.654Z,27.91
2023-04-12T09:08:29.894Z,27.91
2023-04-12T09:09:29.658Z,27.90
2023-04-12T09:10:29.876Z,27.92
2023-04-12T09:11:29.639Z,27.95
2023-04-12T09:12:29.624Z,27.98
2023-04-12T09:13:29.611Z,28.02
2023-04-12T09:14:29.599Z,28.04
2023-04-12T09:15:29.608Z,28.07
2023-04-12T09:16:29.635Z,28.08
2023-04-12T09:17:29.591Z,28.13
2023-04-12T09:18:29.586Z,28.13
2023-04-12T09:19:29.580Z,28.13
2023-04-12T09:20:29.606Z,28.15
2023-04-12T09:21:29.546Z,28.18
2023-04-12T09:22:29.533Z,28.16
2023-04-12T09:23:29.577Z,28.15
2023-04-12T09:24:29.523Z,28.15
2023-04-12T09:25:29.884Z,28.09
2023-04-12T09:26:29.503Z,28.09
2023-04-12T09:27:29.525Z,28.08
2023-04-12T09:28:29.493Z,28.07
2023-04-12T09:29:29.489Z,28.07
2023-04-12T09:30:29.505Z,28.12
2023-04-12T09:31:29.524Z,28.11
2023-04-12T09:32:29.526Z,28.07
2023-04-12T09:33:29.487Z,28.11
2023-04-12T09:34:29.464Z,28.11
2023-04-12T09:35:29.460Z,28.15
2023-04-12T09:36:29.468Z,28.18
2023-04-12T09:37:29.452Z,28.15
2023-04-12T09:38:29.438Z,28.15
2023-04-12T09:39:29.441Z,28.16
2023-04-12T09:40:29.429Z,28.15
2023-04-12T09:41:29.423Z,28.18
2023-04-12T09:42:33.915Z,28.16
2023-04-12T09:43:30.434Z,28.19
2023-04-12T09:44:29.383Z,28.19
2023-04-12T09:45:29.389Z,28.23
2023-04-12T09:46:29.492Z,28.19
2023-04-12T09:47:29.362Z,28.22
2023-04-12T09:48:29.343Z,28.25
2023-04-12T09:49:29.383Z,28.23
2023-04-12T09:50:29.508Z,28.26
2023-04-12T09:51:29.390Z,28.26
2023-04-12T09:52:30.209Z,28.28
2023-04-12T09:53:29.625Z,28.29
2023-04-12T09:54:29.631Z,28.26
2023-04-12T09:55:29.520Z,28.28
2023-04-12T09:56:29.502Z,28.28
2023-04-12T09:57:29.496Z,28.26
2023-04-12T09:58:31.338Z,28.29
2023-04-12T09:59:29.474Z,28.29
2023-04-12T10:00:29.508Z,28.25
2023-04-12T10:01:29.522Z,28.26
2023-04-12T10:02:29.659Z,28.28
2023-04-12T10:03:29.626Z,28.28
2023-04-12T10:04:29.797Z,28.26
2023-04-12T10:05:29.706Z,28.31
2023-04-12T10:06:29.501Z,28.29
2023-04-12T10:07:29.493Z,28.31
2023-04-12T10:08:29.481Z,28.26
2023-04-12T10:09:29.527Z,28.31
2023-04-12T10:10:29.938Z,28.31
2023-04-12T10:11:29.488Z,28.28
2023-04-12T10:12:29.502Z,28.31
2023-04-12T10:13:29.911Z,28.28
2023-04-12T10:14:29.491Z,28.28
2023-04-12T10:15:29.516Z,28.29
2023-04-12T10:16:29.521Z,28.31
2023-04-12T10:17:29.554Z,28.28
2023-04-12T10:18:29.464Z,28.31
2023-04-12T10:19:29.500Z,28.28
2023-04-12T10:20:29.926Z,28.29
2023-04-12T10:21:29.485Z,28.31
2023-04-12T10:22:29.489Z,28.25
2023-04-12T10:23:29.546Z,28.19
2023-04-12T10:24:29.495Z,28.19
2023-04-12T10:25:29.495Z,28.05
2023-04-12T10:26:29.574Z,28.05
2023-04-12T10:27:29.578Z,28.00
2023-04-12T10:28:29.653Z,27.95
2023-04-12T10:29:29.686Z,27.95
2023-04-12T10:30:29.714Z,27.92
2023-04-12T10:31:29.895Z,27.87
2023-04-12T10:32:29.868Z,27.84
2023-04-12T10:33:29.926Z,27.85
2023-04-12T10:34:29.930Z,27.84
2023-04-12T10:35:30.017Z,27.84
2023-04-12T10:36:30.129Z,27.83
2023-04-12T10:37:30.065Z,27.81
2023-04-12T10:38:30.127Z,27.83
2023-04-12T10:39:30.181Z,27.81
2023-04-12T10:40:30.236Z,27.81
2023-04-12T10:41:30.436Z,27.81
2023-04-12T10:42:30.320Z,27.80
2023-04-12T10:43:30.479Z,27.81
2023-04-12T10:44:30.366Z,27.78
2023-04-12T10:45:30.428Z,27.81
2023-04-12T10:46:31.045Z,27.80
2023-04-12T10:47:30.655Z,27.80
2023-04-12T10:48:30.549Z,27.78
2023-04-12T10:49:30.602Z,27.78
2023-04-12T10:50:30.726Z,27.75
2023-04-12T10:51:30.723Z,27.78
2023-04-12T10:52:30.726Z,27.78
2023-04-12T10:53:30.782Z,27.77
2023-04-12T10:54:30.822Z,27.77
2023-04-12T10:55:30.888Z,27.75
2023-04-12T10:56:32.462Z,27.70
2023-04-12T10:57:31.040Z,27.68
2023-04-12T10:58:31.035Z,27.16
2023-04-12T10:59:44.929Z,26.49
2023-04-12T11:00:32.259Z,26.72
2023-04-12T11:01:31.641Z,26.74
2023-04-12T11:02:31.212Z,26.74
2023-04-12T11:03:31.135Z,26.69
2023-04-12T11:04:31.183Z,26.72
2023-04-12T11:05:31.164Z,26.75
2023-04-12T11:06:31.031Z,26.79
2023-04-12T11:07:31.003Z,26.85
2023-04-12T11:08:31.050Z,26.89
2023-04-12T11:09:31.003Z,26.92
2023-04-12T11:10:31.010Z,26.96
2023-04-12T11:11:31.424Z,26.99
2023-04-12T11:12:30.972Z,27.00
2023-04-12T11:13:30.971Z,27.02
2023-04-12T11:14:30.984Z,27.05
2023-04-12T11:15:30.994Z,27.06
2023-04-12T11:16:31.571Z,27.06
2023-04-12T11:17:31.075Z,27.10
2023-04-12T11:18:31.491Z,27.13
2023-04-12T11:19:31.038Z,27.13
2023-04-12T11:20:31.036Z,27.16
2023-04-12T11:21:31.464Z,27.17
2023-04-12T11:22:31.045Z,27.20
2023-04-12T11:23:31.069Z,27.25
2023-04-12T11:24:31.025Z,27.25
2023-04-12T11:25:31.007Z,27.26
2023-04-12T11:26:31.003Z,27.30
2023-04-12T11:27:31.022Z,27.32
2023-04-12T11:28:33.119Z,27.33
2023-04-12T11:29:31.046Z,27.36
2023-04-12T11:30:31.034Z,27.39
2023-04-12T11:31:31.074Z,27.39
2023-04-12T11:32:31.080Z,27.40
2023-04-12T11:33:31.031Z,27.43
2023-04-12T11:34:30.999Z,27.41
2023-04-12T11:35:31.007Z,27.47
2023-04-12T11:36:31.016Z,27.47
2023-04-12T11:37:30.985Z,27.51
2023-04-12T11:38:30.968Z,27.53
2023-04-12T11:39:32.118Z,27.54
2023-04-12T11:40:30.963Z,27.54
2023-04-12T11:41:30.970Z,27.54
2023-04-12T11:42:31.042Z,27.56
2023-04-12T11:43:31.169Z,27.56
2023-04-12T11:44:40.727Z,27.58
2023-04-12T11:45:32.224Z,27.57
2023-04-12T11:46:31.175Z,27.60
2023-04-12T11:47:31.174Z,27.60
2023-04-12T11:48:31.122Z,27.61
2023-04-12T11:49:31.088Z,27.60
2023-04-12T11:50:31.273Z,27.58
2023-04-12T11:51:32.601Z,27.60
2023-04-12T11:52:31.049Z,27.60
2023-04-12T11:53:31.048Z,27.61
2023-04-12T11:54:31.031Z,27.61
2023-04-12T11:55:31.040Z,27.61
2023-04-12T11:56:31.014Z,27.62
2023-04-12T11:57:31.181Z,27.61
2023-04-12T11:58:31.105Z,27.62
2023-04-12T11:59:31.124Z,27.62
2023-04-12T12:00:31.158Z,27.64
2023-04-12T12:01:31.290Z,27.70
2023-04-12T12:02:35.854Z,27.74
2023-04-12T12:03:32.420Z,27.80
2023-04-12T12:04:31.484Z,27.81
2023-04-12T12:05:31.327Z,27.85
2023-04-12T12:06:31.509Z,27.87
2023-04-12T12:07:31.466Z,27.91
2023-04-12T12:08:31.213Z,27.94
2023-04-12T12:09:31.199Z,27.97
2023-04-12T12:10:42.103Z,28.00
2023-04-12T12:11:32.172Z,28.04
2023-04-12T12:12:31.195Z,28.05
2023-04-12T12:13:31.196Z,28.11
2023-04-12T12:14:31.152Z,28.13
2023-04-12T12:15:31.238Z,28.13
2023-04-12T12:16:31.246Z,28.18
2023-04-12T12:17:31.180Z,28.21
2023-04-12T12:18:31.182Z,28.19
2023-04-12T12:19:31.122Z,28.22
2023-04-12T12:20:31.094Z,28.25
2023-04-12T12:21:31.089Z,28.28
2023-04-12T12:22:31.075Z,28.31
2023-04-12T12:23:31.065Z,28.32
2023-04-12T12:24:31.075Z,28.34
2023-04-12T12:25:31.052Z,28.35
2023-04-12T12:26:31.067Z,28.36
2023-04-12T12:27:31.084Z,28.38
2023-04-12T12:28:31.048Z,28.39
2023-04-12T12:29:31.025Z,28.38
2023-04-12T12:30:31.035Z,28.36
2023-04-12T12:31:31.257Z,28.39
2023-04-12T12:32:31.017Z,28.39
2023-04-12T12:33:45.220Z,28.38
2023-04-12T12:34:32.018Z,28.42
2023-04-12T12:35:30.982Z,28.41
2023-04-12T12:36:30.983Z,28.41
2023-04-12T12:37:30.998Z,28.42
2023-04-12T12:38:32.504Z,28.42
2023-04-12T12:39:30.974Z,28.45
2023-04-12T12:40:30.961Z,28.45
2023-04-12T12:41:30.961Z,28.48
2023-04-12T12:42:30.963Z,28.46
2023-04-12T12:43:30.930Z,28.45
2023-04-12T12:44:30.947Z,28.48
2023-04-12T12:45:30.961Z,28.48
2023-04-12T12:46:44.653Z,28.46
2023-04-12T12:47:31.976Z,28.48
2023-04-12T12:48:30.944Z,28.46
2023-04-12T12:49:30.967Z,28.46
2023-04-12T12:50:30.914Z,28.48
2023-04-12T12:51:30.874Z,28.46
2023-04-12T12:52:30.885Z,28.46